sensor_id;sensor_type;location;lat;lon;timestamp;temperature;humidity
16643;DHT22;8435;52.184;5.406;2022-08-11T00:00:21;23.90;79.70
16643;DHT22;8435;52.184;5.406;2022-08-11T00:03:04;23.80;79.40
16643;DHT22;8435;52.184;5.406;2022-08-11T00:05:44;23.80;80.10
16643;DHT22;8435;52.184;5.406;2022-08-11T00:08:20;23.80;80.30
16643;DHT22;8435;52.184;5.406;2022-08-11T00:10:52;23.80;80.50
16643;DHT22;8435;52.184;5.406;2022-08-11T00:13:21;23.70;80.50
16643;DHT22;8435;52.184;5.406;2022-08-11T00:15:52;23.70;80.10
16643;DHT22;8435;52.184;5.406;2022-08-11T00:18:19;23.70;80.30
16643;DHT22;8435;52.184;5.406;2022-08-11T00:20:47;23.70;80.30
16643;DHT22;8435;52.184;5.406;2022-08-11T00:23:17;23.60;80.50
16643;DHT22;8435;52.184;5.406;2022-08-11T00:25:46;23.60;80.80
16643;DHT22;8435;52.184;5.406;2022-08-11T00:28:23;23.60;80.80
16643;DHT22;8435;52.184;5.406;2022-08-11T00:30:51;23.50;81.30
16643;DHT22;8435;52.184;5.406;2022-08-11T00:33:19;23.50;80.90
16643;DHT22;8435;52.184;5.406;2022-08-11T00:35:51;23.40;81.20
16643;DHT22;8435;52.184;5.406;2022-08-11T00:38:24;23.40;81.40
16643;DHT22;8435;52.184;5.406;2022-08-11T00:40:56;23.40;81.50
16643;DHT22;8435;52.184;5.406;2022-08-11T00:43:40;23.40;82.00
16643;DHT22;8435;52.184;5.406;2022-08-11T00:46:13;23.30;82.10
16643;DHT22;8435;52.184;5.406;2022-08-11T00:48:48;23.30;82.20
16643;DHT22;8435;52.184;5.406;2022-08-11T00:51:29;23.20;82.30
16643;DHT22;8435;52.184;5.406;2022-08-11T00:54:13;23.20;82.60
16643;DHT22;8435;52.184;5.406;2022-08-11T01:00:09;23.10;83.00
16643;DHT22;8435;52.184;5.406;2022-08-11T01:03:06;23.10;83.10
16643;DHT22;8435;52.184;5.406;2022-08-11T01:05:50;23.10;83.30
16643;DHT22;8435;52.184;5.406;2022-08-11T01:09:00;23.00;83.30
16643;DHT22;8435;52.184;5.406;2022-08-11T01:11:55;22.90;83.40
16643;DHT22;8435;52.184;5.406;2022-08-11T01:18:07;22.90;83.60
16643;DHT22;8435;52.184;5.406;2022-08-11T01:21:05;22.80;83.70
16643;DHT22;8435;52.184;5.406;2022-08-11T01:33:48;22.70;84.30
16643;DHT22;8435;52.184;5.406;2022-08-11T01:42:57;22.60;85.20
16643;DHT22;8435;52.184;5.406;2022-08-11T01:45:47;22.50;85.30
16643;DHT22;8435;52.184;5.406;2022-08-11T01:48:26;22.50;85.30
16643;DHT22;8435;52.184;5.406;2022-08-11T01:51:05;22.40;85.80
16643;DHT22;8435;52.184;5.406;2022-08-11T01:53:46;22.40;85.90
16643;DHT22;8435;52.184;5.406;2022-08-11T01:59:14;22.40;86.30
16643;DHT22;8435;52.184;5.406;2022-08-11T02:02:21;22.30;86.20
16643;DHT22;8435;52.184;5.406;2022-08-11T02:05:19;22.30;86.80
16643;DHT22;8435;52.184;5.406;2022-08-11T02:07:54;22.30;86.80
16643;DHT22;8435;52.184;5.406;2022-08-11T02:10:29;22.30;86.90
16643;DHT22;8435;52.184;5.406;2022-08-11T02:13:21;22.30;87.00
16643;DHT22;8435;52.184;5.406;2022-08-11T02:15:54;22.20;87.10
16643;DHT22;8435;52.184;5.406;2022-08-11T02:18:32;22.20;87.30
16643;DHT22;8435;52.184;5.406;2022-08-11T02:21:16;22.10;87.30
16643;DHT22;8435;52.184;5.406;2022-08-11T02:24:05;22.10;87.30
16643;DHT22;8435;52.184;5.406;2022-08-11T02:26:41;22.10;87.50
16643;DHT22;8435;52.184;5.406;2022-08-11T02:29:17;22.10;88.10
16643;DHT22;8435;52.184;5.406;2022-08-11T02:31:56;22.10;88.20
16643;DHT22;8435;52.184;5.406;2022-08-11T02:34:47;22.00;88.50
16643;DHT22;8435;52.184;5.406;2022-08-11T02:37:26;21.90;88.30
16643;DHT22;8435;52.184;5.406;2022-08-11T02:40:07;21.90;88.50
16643;DHT22;8435;52.184;5.406;2022-08-11T02:42:48;21.90;88.80
16643;DHT22;8435;52.184;5.406;2022-08-11T02:45:30;21.80;88.90
16643;DHT22;8435;52.184;5.406;2022-08-11T02:48:03;21.80;89.30
16643;DHT22;8435;52.184;5.406;2022-08-11T02:51:01;21.80;89.10
16643;DHT22;8435;52.184;5.406;2022-08-11T02:53:36;21.70;89.20
16643;DHT22;8435;52.184;5.406;2022-08-11T02:56:12;21.70;89.60
16643;DHT22;8435;52.184;5.406;2022-08-11T02:58:54;21.60;89.70
16643;DHT22;8435;52.184;5.406;2022-08-11T03:01:42;21.60;90.00
16643;DHT22;8435;52.184;5.406;2022-08-11T03:04:17;21.60;90.00
16643;DHT22;8435;52.184;5.406;2022-08-11T03:06:49;21.60;90.00
16643;DHT22;8435;52.184;5.406;2022-08-11T03:09:25;21.60;90.00
16643;DHT22;8435;52.184;5.406;2022-08-11T03:11:59;21.50;90.20
16643;DHT22;8435;52.184;5.406;2022-08-11T03:14:51;21.50;90.20
16643;DHT22;8435;52.184;5.406;2022-08-11T03:17:40;21.50;90.20
16643;DHT22;8435;52.184;5.406;2022-08-11T03:20:22;21.50;90.30
16643;DHT22;8435;52.184;5.406;2022-08-11T03:22:58;21.40;90.40
16643;DHT22;8435;52.184;5.406;2022-08-11T03:25:32;21.40;90.50
16643;DHT22;8435;52.184;5.406;2022-08-11T03:28:13;21.30;90.30
16643;DHT22;8435;52.184;5.406;2022-08-11T03:30:53;21.30;90.60
16643;DHT22;8435;52.184;5.406;2022-08-11T03:33:24;21.30;90.60
16643;DHT22;8435;52.184;5.406;2022-08-11T03:36:20;21.30;90.60
16643;DHT22;8435;52.184;5.406;2022-08-11T03:39:00;21.30;90.70
16643;DHT22;8435;52.184;5.406;2022-08-11T03:41:34;21.30;90.80
16643;DHT22;8435;52.184;5.406;2022-08-11T03:44:32;21.20;90.60
16643;DHT22;8435;52.184;5.406;2022-08-11T03:47:13;21.20;91.00
16643;DHT22;8435;52.184;5.406;2022-08-11T03:49:56;21.20;91.10
16643;DHT22;8435;52.184;5.406;2022-08-11T03:52:37;21.10;91.00
16643;DHT22;8435;52.184;5.406;2022-08-11T03:55:14;21.20;90.90
16643;DHT22;8435;52.184;5.406;2022-08-11T03:58:24;21.10;90.90
16643;DHT22;8435;52.184;5.406;2022-08-11T04:01:23;21.10;91.10
16643;DHT22;8435;52.184;5.406;2022-08-11T04:14:03;21.00;91.30
16643;DHT22;8435;52.184;5.406;2022-08-11T04:17:16;20.90;91.20
16643;DHT22;8435;52.184;5.406;2022-08-11T04:26:01;20.90;91.40
16643;DHT22;8435;52.184;5.406;2022-08-11T04:28:43;20.80;91.40
16643;DHT22;8435;52.184;5.406;2022-08-11T04:31:37;20.80;91.50
16643;DHT22;8435;52.184;5.406;2022-08-11T04:34:23;20.80;91.60
16643;DHT22;8435;52.184;5.406;2022-08-11T04:37:10;20.80;91.60
16643;DHT22;8435;52.184;5.406;2022-08-11T04:46:42;20.80;91.80
16643;DHT22;8435;52.184;5.406;2022-08-11T04:49:24;20.80;91.90
16643;DHT22;8435;52.184;5.406;2022-08-11T04:52:39;20.70;91.90
16643;DHT22;8435;52.184;5.406;2022-08-11T04:55:35;20.70;92.00
16643;DHT22;8435;52.184;5.406;2022-08-11T04:58:42;20.70;91.90
16643;DHT22;8435;52.184;5.406;2022-08-11T05:01:36;20.80;92.00
16643;DHT22;8435;52.184;5.406;2022-08-11T05:04:20;20.80;92.10
16643;DHT22;8435;52.184;5.406;2022-08-11T05:07:24;20.90;92.10
16643;DHT22;8435;52.184;5.406;2022-08-11T05:10:18;21.00;92.10
16643;DHT22;8435;52.184;5.406;2022-08-11T05:12:52;21.00;92.20
16643;DHT22;8435;52.184;5.406;2022-08-11T05:15:31;21.10;92.00
16643;DHT22;8435;52.184;5.406;2022-08-11T05:18:21;21.10;92.10
16643;DHT22;8435;52.184;5.406;2022-08-11T05:21:10;21.10;91.90
16643;DHT22;8435;52.184;5.406;2022-08-11T05:23:57;21.20;91.90
16643;DHT22;8435;52.184;5.406;2022-08-11T05:26:50;21.20;91.90
16643;DHT22;8435;52.184;5.406;2022-08-11T05:29:40;21.20;91.90
16643;DHT22;8435;52.184;5.406;2022-08-11T05:32:34;21.20;91.90
16643;DHT22;8435;52.184;5.406;2022-08-11T05:35:26;21.30;92.00
16643;DHT22;8435;52.184;5.406;2022-08-11T05:37:54;21.30;92.10
16643;DHT22;8435;52.184;5.406;2022-08-11T05:40:47;21.30;91.90
16643;DHT22;8435;52.184;5.406;2022-08-11T05:43:34;21.30;91.80
16643;DHT22;8435;52.184;5.406;2022-08-11T05:46:23;21.30;91.80
16643;DHT22;8435;52.184;5.406;2022-08-11T05:49:10;21.40;91.80
16643;DHT22;8435;52.184;5.406;2022-08-11T05:51:55;21.40;91.80
16643;DHT22;8435;52.184;5.406;2022-08-11T05:54:40;21.40;91.80
16643;DHT22;8435;52.184;5.406;2022-08-11T05:57:29;21.40;91.80
16643;DHT22;8435;52.184;5.406;2022-08-11T06:00:00;21.50;91.70
16643;DHT22;8435;52.184;5.406;2022-08-11T06:02:28;21.50;91.70
16643;DHT22;8435;52.184;5.406;2022-08-11T06:04:56;21.60;91.70
16643;DHT22;8435;52.184;5.406;2022-08-11T06:07:27;21.60;91.90
16643;DHT22;8435;52.184;5.406;2022-08-11T06:09:56;21.80;92.30
16643;DHT22;8435;52.184;5.406;2022-08-11T06:12:25;22.00;92.20
16643;DHT22;8435;52.184;5.406;2022-08-11T06:14:55;22.40;92.10
16643;DHT22;8435;52.184;5.406;2022-08-11T06:17:25;22.60;91.70
16643;DHT22;8435;52.184;5.406;2022-08-11T06:19:58;22.90;91.30
16643;DHT22;8435;52.184;5.406;2022-08-11T06:22:25;23.10;91.40
16643;DHT22;8435;52.184;5.406;2022-08-11T06:24:55;23.30;90.70
16643;DHT22;8435;52.184;5.406;2022-08-11T06:27:24;23.40;90.30
16643;DHT22;8435;52.184;5.406;2022-08-11T06:29:52;23.50;90.30
16643;DHT22;8435;52.184;5.406;2022-08-11T06:32:20;23.70;90.20
16643;DHT22;8435;52.184;5.406;2022-08-11T06:35:02;23.80;89.60
16643;DHT22;8435;52.184;5.406;2022-08-11T06:37:40;24.00;88.30
16643;DHT22;8435;52.184;5.406;2022-08-11T06:40:15;24.10;88.30
16643;DHT22;8435;52.184;5.406;2022-08-11T06:42:50;24.30;88.50
16643;DHT22;8435;52.184;5.406;2022-08-11T06:45:40;24.50;88.50
16643;DHT22;8435;52.184;5.406;2022-08-11T06:48:15;24.80;87.10
16643;DHT22;8435;52.184;5.406;2022-08-11T06:50:49;25.10;86.40
16643;DHT22;8435;52.184;5.406;2022-08-11T06:53:36;25.40;85.30
16643;DHT22;8435;52.184;5.406;2022-08-11T06:56:05;25.60;84.60
16643;DHT22;8435;52.184;5.406;2022-08-11T06:58:52;25.70;85.10
16643;DHT22;8435;52.184;5.406;2022-08-11T07:01:42;25.90;84.20
16643;DHT22;8435;52.184;5.406;2022-08-11T07:04:13;26.00;82.40
16643;DHT22;8435;52.184;5.406;2022-08-11T07:07:03;26.20;82.60
16643;DHT22;8435;52.184;5.406;2022-08-11T07:10:27;26.40;81.60
16643;DHT22;8435;52.184;5.406;2022-08-11T07:13:18;26.60;80.70
16643;DHT22;8435;52.184;5.406;2022-08-11T07:16:05;26.90;81.60
16643;DHT22;8435;52.184;5.406;2022-08-11T07:18:35;27.00;80.00
16643;DHT22;8435;52.184;5.406;2022-08-11T07:21:25;27.10;79.10
16643;DHT22;8435;52.184;5.406;2022-08-11T07:24:14;27.30;78.20
16643;DHT22;8435;52.184;5.406;2022-08-11T07:27:00;27.50;78.80
16643;DHT22;8435;52.184;5.406;2022-08-11T07:29:49;27.90;79.30
16643;DHT22;8435;52.184;5.406;2022-08-11T07:32:23;28.30;78.40
16643;DHT22;8435;52.184;5.406;2022-08-11T07:34:56;28.70;77.30
16643;DHT22;8435;52.184;5.406;2022-08-11T07:37:25;29.20;77.80
16643;DHT22;8435;52.184;5.406;2022-08-11T07:39:57;29.60;76.20
16643;DHT22;8435;52.184;5.406;2022-08-11T07:42:28;30.00;73.50
16643;DHT22;8435;52.184;5.406;2022-08-11T07:44:56;30.40;72.40
16643;DHT22;8435;52.184;5.406;2022-08-11T07:47:41;30.80;71.90
16643;DHT22;8435;52.184;5.406;2022-08-11T07:50:26;31.20;71.80
16643;DHT22;8435;52.184;5.406;2022-08-11T07:53:13;31.70;70.00
16643;DHT22;8435;52.184;5.406;2022-08-11T07:55:42;32.00;68.60
16643;DHT22;8435;52.184;5.406;2022-08-11T07:58:09;32.40;67.90
16643;DHT22;8435;52.184;5.406;2022-08-11T08:00:55;32.70;66.90
16643;DHT22;8435;52.184;5.406;2022-08-11T08:03:42;33.00;65.40
16643;DHT22;8435;52.184;5.406;2022-08-11T08:06:27;33.30;64.30
16643;DHT22;8435;52.184;5.406;2022-08-11T08:09:14;33.60;63.30
16643;DHT22;8435;52.184;5.406;2022-08-11T08:12:01;33.90;62.40
16643;DHT22;8435;52.184;5.406;2022-08-11T08:14:46;34.20;61.90
16643;DHT22;8435;52.184;5.406;2022-08-11T08:17:31;34.50;61.90
16643;DHT22;8435;52.184;5.406;2022-08-11T08:20:17;34.70;59.50
16643;DHT22;8435;52.184;5.406;2022-08-11T08:22:46;34.90;58.80
16643;DHT22;8435;52.184;5.406;2022-08-11T08:25:13;35.00;58.40
16643;DHT22;8435;52.184;5.406;2022-08-11T08:27:43;35.20;57.50
16643;DHT22;8435;52.184;5.406;2022-08-11T08:30:12;35.30;56.80
16643;DHT22;8435;52.184;5.406;2022-08-11T08:32:56;35.40;56.00
16643;DHT22;8435;52.184;5.406;2022-08-11T08:35:25;35.50;56.10
16643;DHT22;8435;52.184;5.406;2022-08-11T08:37:55;35.50;55.00
16643;DHT22;8435;52.184;5.406;2022-08-11T08:40:22;35.60;55.00
16643;DHT22;8435;52.184;5.406;2022-08-11T08:42:56;35.60;54.80
16643;DHT22;8435;52.184;5.406;2022-08-11T08:45:24;35.60;54.30
16643;DHT22;8435;52.184;5.406;2022-08-11T08:47:57;35.70;53.80
16643;DHT22;8435;52.184;5.406;2022-08-11T08:50:29;35.70;53.90
16643;DHT22;8435;52.184;5.406;2022-08-11T08:53:12;35.80;53.10
16643;DHT22;8435;52.184;5.406;2022-08-11T08:55:39;35.80;53.40
16643;DHT22;8435;52.184;5.406;2022-08-11T08:58:12;35.80;52.90
16643;DHT22;8435;52.184;5.406;2022-08-11T09:00:43;35.90;53.10
16643;DHT22;8435;52.184;5.406;2022-08-11T09:03:12;36.00;52.40
16643;DHT22;8435;52.184;5.406;2022-08-11T09:05:39;36.00;52.60
16643;DHT22;8435;52.184;5.406;2022-08-11T09:08:07;36.00;52.10
16643;DHT22;8435;52.184;5.406;2022-08-11T09:10:35;36.10;52.00
16643;DHT22;8435;52.184;5.406;2022-08-11T09:13:02;36.10;51.80
16643;DHT22;8435;52.184;5.406;2022-08-11T09:15:31;36.10;51.70
16643;DHT22;8435;52.184;5.406;2022-08-11T09:18:00;36.20;50.70
16643;DHT22;8435;52.184;5.406;2022-08-11T09:20:33;36.20;51.20
16643;DHT22;8435;52.184;5.406;2022-08-11T09:23:03;36.30;50.90
16643;DHT22;8435;52.184;5.406;2022-08-11T09:25:49;36.30;51.10
16643;DHT22;8435;52.184;5.406;2022-08-11T09:28:34;36.40;49.70
16643;DHT22;8435;52.184;5.406;2022-08-11T09:31:04;36.40;49.30
16643;DHT22;8435;52.184;5.406;2022-08-11T09:33:32;36.40;49.80
16643;DHT22;8435;52.184;5.406;2022-08-11T09:36:03;36.40;49.60
16643;DHT22;8435;52.184;5.406;2022-08-11T09:38:51;36.40;49.70
16643;DHT22;8435;52.184;5.406;2022-08-11T09:41:36;36.50;49.10
16643;DHT22;8435;52.184;5.406;2022-08-11T09:44:05;36.50;48.80
16643;DHT22;8435;52.184;5.406;2022-08-11T09:46:52;36.60;48.50
16643;DHT22;8435;52.184;5.406;2022-08-11T09:49:22;36.70;47.70
16643;DHT22;8435;52.184;5.406;2022-08-11T09:51:49;36.70;47.90
16643;DHT22;8435;52.184;5.406;2022-08-11T09:54:17;36.80;48.10
16643;DHT22;8435;52.184;5.406;2022-08-11T09:56:47;36.90;47.80
16643;DHT22;8435;52.184;5.406;2022-08-11T09:59:31;36.90;47.40
16643;DHT22;8435;52.184;5.406;2022-08-11T10:02:01;36.90;47.00
16643;DHT22;8435;52.184;5.406;2022-08-11T10:04:32;36.90;46.60
16643;DHT22;8435;52.184;5.406;2022-08-11T10:07:02;36.90;46.30
16643;DHT22;8435;52.184;5.406;2022-08-11T10:09:37;36.80;46.10
16643;DHT22;8435;52.184;5.406;2022-08-11T10:12:08;36.70;45.80
16643;DHT22;8435;52.184;5.406;2022-08-11T10:14:39;36.60;45.70
16643;DHT22;8435;52.184;5.406;2022-08-11T10:17:28;36.40;46.10
16643;DHT22;8435;52.184;5.406;2022-08-11T10:19:57;36.20;46.00
16643;DHT22;8435;52.184;5.406;2022-08-11T10:22:26;36.00;46.50
16643;DHT22;8435;52.184;5.406;2022-08-11T10:25:12;35.90;46.60
16643;DHT22;8435;52.184;5.406;2022-08-11T10:27:57;35.70;45.10
16643;DHT22;8435;52.184;5.406;2022-08-11T10:30:25;35.60;44.60
16643;DHT22;8435;52.184;5.406;2022-08-11T10:33:12;35.40;44.40
16643;DHT22;8435;52.184;5.406;2022-08-11T10:35:57;35.20;44.40
16643;DHT22;8435;52.184;5.406;2022-08-11T10:38:26;35.10;45.30
16643;DHT22;8435;52.184;5.406;2022-08-11T10:40:54;34.90;45.00
16643;DHT22;8435;52.184;5.406;2022-08-11T10:43:38;34.80;45.00
16643;DHT22;8435;52.184;5.406;2022-08-11T10:46:07;34.80;45.90
16643;DHT22;8435;52.184;5.406;2022-08-11T10:48:54;34.70;44.70
16643;DHT22;8435;52.184;5.406;2022-08-11T10:51:22;34.60;44.10
16643;DHT22;8435;52.184;5.406;2022-08-11T10:54:07;34.50;44.70
16643;DHT22;8435;52.184;5.406;2022-08-11T10:56:52;34.40;44.40
16643;DHT22;8435;52.184;5.406;2022-08-11T10:59:37;34.30;44.50
16643;DHT22;8435;52.184;5.406;2022-08-11T11:02:08;34.30;44.60
16643;DHT22;8435;52.184;5.406;2022-08-11T11:04:51;34.20;44.80
16643;DHT22;8435;52.184;5.406;2022-08-11T11:07:26;34.10;44.80
16643;DHT22;8435;52.184;5.406;2022-08-11T11:09:58;34.10;45.00
16643;DHT22;8435;52.184;5.406;2022-08-11T11:12:30;34.00;45.20
16643;DHT22;8435;52.184;5.406;2022-08-11T11:15:17;34.00;45.30
16643;DHT22;8435;52.184;5.406;2022-08-11T11:18:05;33.90;44.80
16643;DHT22;8435;52.184;5.406;2022-08-11T11:20:39;33.90;44.40
16643;DHT22;8435;52.184;5.406;2022-08-11T11:23:11;33.90;44.00
16643;DHT22;8435;52.184;5.406;2022-08-11T11:26:07;33.90;44.10
16643;DHT22;8435;52.184;5.406;2022-08-11T11:29:14;33.90;44.80
16643;DHT22;8435;52.184;5.406;2022-08-11T11:31:55;33.90;45.10
16643;DHT22;8435;52.184;5.406;2022-08-11T11:37:30;33.90;44.20
16643;DHT22;8435;52.184;5.406;2022-08-11T11:39:59;33.80;44.10
16643;DHT22;8435;52.184;5.406;2022-08-11T11:42:27;33.80;43.90
16643;DHT22;8435;52.184;5.406;2022-08-11T11:44:56;33.80;43.50
16643;DHT22;8435;52.184;5.406;2022-08-11T11:47:24;33.70;43.50
16643;DHT22;8435;52.184;5.406;2022-08-11T11:49:52;33.70;43.70
16643;DHT22;8435;52.184;5.406;2022-08-11T11:52:20;33.70;43.80
16643;DHT22;8435;52.184;5.406;2022-08-11T11:54:51;33.70;43.80
16643;DHT22;8435;52.184;5.406;2022-08-11T11:57:23;33.70;43.80
16643;DHT22;8435;52.184;5.406;2022-08-11T12:00:10;33.70;43.70
16643;DHT22;8435;52.184;5.406;2022-08-11T12:02:55;33.70;43.10
16643;DHT22;8435;52.184;5.406;2022-08-11T12:05:24;33.70;42.30
16643;DHT22;8435;52.184;5.406;2022-08-11T12:07:53;33.70;42.60
16643;DHT22;8435;52.184;5.406;2022-08-11T12:10:43;33.70;42.40
16643;DHT22;8435;52.184;5.406;2022-08-11T12:13:12;33.70;42.50
16643;DHT22;8435;52.184;5.406;2022-08-11T12:15:57;33.70;42.50
16643;DHT22;8435;52.184;5.406;2022-08-11T12:18:25;33.60;42.80
16643;DHT22;8435;52.184;5.406;2022-08-11T12:20:53;33.60;42.80
16643;DHT22;8435;52.184;5.406;2022-08-11T12:23:19;33.70;42.80
16643;DHT22;8435;52.184;5.406;2022-08-11T12:26:07;33.70;43.00
16643;DHT22;8435;52.184;5.406;2022-08-11T12:28:52;33.70;42.70
16643;DHT22;8435;52.184;5.406;2022-08-11T12:31:25;33.70;43.50
16643;DHT22;8435;52.184;5.406;2022-08-11T12:33:52;33.60;43.10
16643;DHT22;8435;52.184;5.406;2022-08-11T12:36:21;33.70;42.90
16643;DHT22;8435;52.184;5.406;2022-08-11T12:38:49;33.70;43.00
16643;DHT22;8435;52.184;5.406;2022-08-11T12:41:20;33.70;42.80
16643;DHT22;8435;52.184;5.406;2022-08-11T12:44:08;33.80;43.00
16643;DHT22;8435;52.184;5.406;2022-08-11T12:46:54;33.70;42.70
16643;DHT22;8435;52.184;5.406;2022-08-11T12:49:23;33.80;43.20
16643;DHT22;8435;52.184;5.406;2022-08-11T12:52:10;33.90;43.20
16643;DHT22;8435;52.184;5.406;2022-08-11T12:54:54;33.80;43.70
16643;DHT22;8435;52.184;5.406;2022-08-11T12:57:29;33.90;43.90
16643;DHT22;8435;52.184;5.406;2022-08-11T13:00:15;33.90;43.60
16643;DHT22;8435;52.184;5.406;2022-08-11T13:03:01;33.90;43.10
16643;DHT22;8435;52.184;5.406;2022-08-11T13:05:47;33.90;42.80
16643;DHT22;8435;52.184;5.406;2022-08-11T13:08:18;34.00;42.30
16643;DHT22;8435;52.184;5.406;2022-08-11T13:10:49;34.00;41.50
16643;DHT22;8435;52.184;5.406;2022-08-11T13:13:37;34.00;42.40
16643;DHT22;8435;52.184;5.406;2022-08-11T13:16:05;34.00;42.20
16643;DHT22;8435;52.184;5.406;2022-08-11T13:18:36;34.00;42.20
16643;DHT22;8435;52.184;5.406;2022-08-11T13:21:07;34.00;42.50
16643;DHT22;8435;52.184;5.406;2022-08-11T13:23:35;34.00;42.20
16643;DHT22;8435;52.184;5.406;2022-08-11T13:26:04;34.00;42.20
16643;DHT22;8435;52.184;5.406;2022-08-11T13:28:34;33.90;42.00
16643;DHT22;8435;52.184;5.406;2022-08-11T13:31:03;33.90;42.40
16643;DHT22;8435;52.184;5.406;2022-08-11T13:33:40;33.90;41.90
16643;DHT22;8435;52.184;5.406;2022-08-11T13:36:09;33.90;42.40
16643;DHT22;8435;52.184;5.406;2022-08-11T13:38:36;33.90;42.60
16643;DHT22;8435;52.184;5.406;2022-08-11T13:41:08;33.90;41.90
16643;DHT22;8435;52.184;5.406;2022-08-11T13:43:50;33.90;41.90
16643;DHT22;8435;52.184;5.406;2022-08-11T13:46:19;33.90;42.00
16643;DHT22;8435;52.184;5.406;2022-08-11T13:48:49;33.90;41.90
16643;DHT22;8435;52.184;5.406;2022-08-11T13:51:16;33.90;41.40
16643;DHT22;8435;52.184;5.406;2022-08-11T13:53:56;33.90;41.70
16643;DHT22;8435;52.184;5.406;2022-08-11T13:56:24;33.90;41.70
16643;DHT22;8435;52.184;5.406;2022-08-11T13:58:51;33.90;42.10
16643;DHT22;8435;52.184;5.406;2022-08-11T14:01:23;33.90;42.50
16643;DHT22;8435;52.184;5.406;2022-08-11T14:03:52;33.90;41.60
16643;DHT22;8435;52.184;5.406;2022-08-11T14:06:21;33.90;41.80
16643;DHT22;8435;52.184;5.406;2022-08-11T14:08:49;33.90;41.70
16643;DHT22;8435;52.184;5.406;2022-08-11T14:11:18;34.00;42.20
16643;DHT22;8435;52.184;5.406;2022-08-11T14:14:04;34.00;42.40
16643;DHT22;8435;52.184;5.406;2022-08-11T14:16:43;34.00;42.30
16643;DHT22;8435;52.184;5.406;2022-08-11T14:19:12;34.00;42.20
16643;DHT22;8435;52.184;5.406;2022-08-11T14:21:41;34.10;42.00
16643;DHT22;8435;52.184;5.406;2022-08-11T14:24:27;34.10;42.00
16643;DHT22;8435;52.184;5.406;2022-08-11T14:26:54;34.10;41.70
16643;DHT22;8435;52.184;5.406;2022-08-11T14:29:24;34.10;41.90
16643;DHT22;8435;52.184;5.406;2022-08-11T14:31:55;34.10;42.00
16643;DHT22;8435;52.184;5.406;2022-08-11T14:34:24;34.10;41.80
16643;DHT22;8435;52.184;5.406;2022-08-11T14:36:52;34.10;41.90
16643;DHT22;8435;52.184;5.406;2022-08-11T14:39:25;34.10;41.90
16643;DHT22;8435;52.184;5.406;2022-08-11T14:41:53;34.10;42.20
16643;DHT22;8435;52.184;5.406;2022-08-11T14:44:42;34.10;42.50
16643;DHT22;8435;52.184;5.406;2022-08-11T14:47:29;34.10;42.40
16643;DHT22;8435;52.184;5.406;2022-08-11T14:49:57;34.10;42.30
16643;DHT22;8435;52.184;5.406;2022-08-11T14:52:31;34.10;42.50
16643;DHT22;8435;52.184;5.406;2022-08-11T14:55:00;34.10;42.40
16643;DHT22;8435;52.184;5.406;2022-08-11T14:57:45;34.10;42.60
16643;DHT22;8435;52.184;5.406;2022-08-11T15:00:14;34.10;42.80
16643;DHT22;8435;52.184;5.406;2022-08-11T15:02:45;34.10;43.20
16643;DHT22;8435;52.184;5.406;2022-08-11T15:05:31;34.10;43.10
16643;DHT22;8435;52.184;5.406;2022-08-11T15:07:59;34.10;43.20
16643;DHT22;8435;52.184;5.406;2022-08-11T15:10:26;34.10;43.20
16643;DHT22;8435;52.184;5.406;2022-08-11T15:12:54;34.10;43.50
16643;DHT22;8435;52.184;5.406;2022-08-11T15:15:21;34.10;43.10
16643;DHT22;8435;52.184;5.406;2022-08-11T15:18:12;34.10;43.00
16643;DHT22;8435;52.184;5.406;2022-08-11T15:20:40;34.10;42.90
16643;DHT22;8435;52.184;5.406;2022-08-11T15:23:25;34.00;43.00
16643;DHT22;8435;52.184;5.406;2022-08-11T15:26:11;34.00;42.90
16643;DHT22;8435;52.184;5.406;2022-08-11T15:28:42;34.00;43.20
16643;DHT22;8435;52.184;5.406;2022-08-11T15:31:29;33.90;42.90
16643;DHT22;8435;52.184;5.406;2022-08-11T15:34:18;33.90;43.40
16643;DHT22;8435;52.184;5.406;2022-08-11T15:37:07;33.90;43.50
16643;DHT22;8435;52.184;5.406;2022-08-11T15:40:00;33.80;43.70
16643;DHT22;8435;52.184;5.406;2022-08-11T15:42:50;33.80;44.10
16643;DHT22;8435;52.184;5.406;2022-08-11T15:45:38;33.80;44.00
16643;DHT22;8435;52.184;5.406;2022-08-11T15:48:19;33.80;43.70
16643;DHT22;8435;52.184;5.406;2022-08-11T15:50:51;33.70;44.00
16643;DHT22;8435;52.184;5.406;2022-08-11T15:53:30;33.70;44.10
16643;DHT22;8435;52.184;5.406;2022-08-11T15:55:59;33.60;43.80
16643;DHT22;8435;52.184;5.406;2022-08-11T15:58:35;33.60;43.70
16643;DHT22;8435;52.184;5.406;2022-08-11T16:01:22;33.60;43.80
16643;DHT22;8435;52.184;5.406;2022-08-11T16:04:13;33.50;43.90
16643;DHT22;8435;52.184;5.406;2022-08-11T16:06:47;33.50;44.20
16643;DHT22;8435;52.184;5.406;2022-08-11T16:09:18;33.50;44.10
16643;DHT22;8435;52.184;5.406;2022-08-11T16:11:45;33.40;44.00
16643;DHT22;8435;52.184;5.406;2022-08-11T16:14:15;33.40;44.10
16643;DHT22;8435;52.184;5.406;2022-08-11T16:17:02;33.40;44.30
16643;DHT22;8435;52.184;5.406;2022-08-11T16:19:30;33.30;44.50
16643;DHT22;8435;52.184;5.406;2022-08-11T16:22:02;33.30;44.60
16643;DHT22;8435;52.184;5.406;2022-08-11T16:24:33;33.30;44.70
16643;DHT22;8435;52.184;5.406;2022-08-11T16:27:02;33.20;45.10
16643;DHT22;8435;52.184;5.406;2022-08-11T16:29:30;33.20;44.80
16643;DHT22;8435;52.184;5.406;2022-08-11T16:31:58;33.20;44.90
16643;DHT22;8435;52.184;5.406;2022-08-11T16:34:47;33.20;44.50
16643;DHT22;8435;52.184;5.406;2022-08-11T16:37:35;33.10;44.50
16643;DHT22;8435;52.184;5.406;2022-08-11T16:40:20;33.10;44.70
16643;DHT22;8435;52.184;5.406;2022-08-11T16:42:49;33.10;44.70
16643;DHT22;8435;52.184;5.406;2022-08-11T16:45:34;33.00;44.80
16643;DHT22;8435;52.184;5.406;2022-08-11T16:48:25;33.00;45.10
16643;DHT22;8435;52.184;5.406;2022-08-11T16:50:54;33.00;45.00
16643;DHT22;8435;52.184;5.406;2022-08-11T16:53:22;32.90;45.20
16643;DHT22;8435;52.184;5.406;2022-08-11T16:55:50;32.90;45.40
16643;DHT22;8435;52.184;5.406;2022-08-11T16:58:19;32.80;45.40
16643;DHT22;8435;52.184;5.406;2022-08-11T17:01:05;32.80;45.70
16643;DHT22;8435;52.184;5.406;2022-08-11T17:03:33;32.80;45.50
16643;DHT22;8435;52.184;5.406;2022-08-11T17:06:19;32.80;45.60
16643;DHT22;8435;52.184;5.406;2022-08-11T17:09:06;32.70;45.60
16643;DHT22;8435;52.184;5.406;2022-08-11T17:11:55;32.70;46.00
16643;DHT22;8435;52.184;5.406;2022-08-11T17:14:44;32.60;46.00
16643;DHT22;8435;52.184;5.406;2022-08-11T17:17:14;32.60;46.00
16643;DHT22;8435;52.184;5.406;2022-08-11T17:19:46;32.50;46.50
16643;DHT22;8435;52.184;5.406;2022-08-11T17:22:13;32.50;46.00
16643;DHT22;8435;52.184;5.406;2022-08-11T17:25:00;32.50;45.90
16643;DHT22;8435;52.184;5.406;2022-08-11T17:27:28;32.50;46.10
16643;DHT22;8435;52.184;5.406;2022-08-11T17:29:58;32.40;46.20
16643;DHT22;8435;52.184;5.406;2022-08-11T17:32:31;32.40;46.30
16643;DHT22;8435;52.184;5.406;2022-08-11T17:35:18;32.30;46.30
16643;DHT22;8435;52.184;5.406;2022-08-11T17:37:59;32.30;46.30
16643;DHT22;8435;52.184;5.406;2022-08-11T17:40:28;32.30;46.10
16643;DHT22;8435;52.184;5.406;2022-08-11T17:42:56;32.30;46.30
16643;DHT22;8435;52.184;5.406;2022-08-11T17:45:46;32.20;46.00